PVU weather

Provo Municipal Airport
Provo, Utah, United States

Public forecast

Using degrees Fahrenheit for public forecast. Weather courtesy of forecast.io.

Current aviation weather report (METAR) for Provo Municipal Airport

Retrieved 2020/04/09 13:56 UTC (38 minutes ago):

KPVU 091356Z 17004KT 10SM BKN110 08/04 A3001 RMK AO2 SLP139 T00830039

Aviation forecast (TAF) for Provo Municipal Airport

Retrieved 2020/04/09 12:22 UTC (2 hours ago):

TAF KPVU 091120Z 0912/1012 VRB05KT P6SM SCT060 SCT120 FM091900 22010KT P6SM VCSH SCT030 BKN060 FM100300 VRB04KT P6SM SCT060 SCT120